< Typhoon 199126 1991 Season Typhoon 199128 >
Typhoon 199127 (WILDA)
General InformationTrack Information on Google MapsDetailed Wind InformationList of All Images || Disaster Info.ResourceGoogle EarthGE AnimationAtom FeedGeoJSON
Detalied Best Track (Time Zone = UTC)
Year Month Day Hour Lat. Long. Pressure (hPa) Wind (kt) Class Image Chart
1991 11 14 06 9.0 133.0 1008 0 2 Image Chart
1991 11 14 12 9.5 131.5 1008 0 2 Image Chart
1991 11 14 18 10.0 130.0 1008 0 2 Image Chart
1991 11 15 00 10.5 129.0 1006 0 2 Image Chart
1991 11 15 06 10.8 128.2 1000 35 3 Image Chart
1991 11 15 12 11.3 126.9 998 35 3 Image Chart
1991 11 15 18 12.0 125.9 996 40 3 Image Chart
1991 11 16 00 12.8 125.2 996 40 3 Image Chart
1991 11 16 06 13.3 124.1 996 40 3 Image Chart
1991 11 16 12 13.8 123.0 996 40 3 Image Chart
1991 11 16 18 14.0 122.1 996 40 3 Image Chart
1991 11 17 00 14.1 121.2 996 40 3 Image Chart
1991 11 17 06 14.2 120.2 992 40 3 Image Chart
1991 11 17 12 14.8 119.4 992 40 3 Image Chart
1991 11 17 18 15.4 119.1 992 45 3 Image Chart
1991 11 18 00 16.3 118.9 992 45 3 Image Chart
1991 11 18 06 16.7 118.6 994 40 3 Image Chart
1991 11 18 12 17.1 118.3 994 40 3 Image Chart
1991 11 18 18 17.4 118.1 994 40 3 Image Chart
1991 11 19 00 17.6 117.8 998 40 3 Image Chart
1991 11 19 06 17.8 116.7 1000 35 3 Image Chart
1991 11 19 12 17.4 115.9 1002 35 3 Image Chart
1991 11 19 18 16.8 114.4 1004 0 2 Image Chart
1991 11 20 00 16.3 113.4 1008 0 2 Image Chart
Japan Meteorological Agency Best Track Data | Correction Date : 1992-01-04
< Typhoon 199126 1991 Season Typhoon 199128 >

Help